Time;durP1;ratioP1;P1;durP2;ratioP2;P2;SDS_P1;SDS_P2;PMS_P1;PMS_P2;Temp;Humidity;BMP_temperature;BMP_pressure;BME280_temperature;BME280_humidity;BME280_pressure;Samples;Min_cycle;Max_cycle;Signal;HPM_P1;HPM_P2
2023/01/28 00:02:00;;;;;;;1.60;1.60;;;15.40;64.10;;;;;;5068458;28;43434;-71
2023/01/28 00:04:28;;;;;;;1.70;1.70;;;15.30;64.10;;;;;;5068661;28;43889;-71
2023/01/28 00:06:56;;;;;;;1.67;1.67;;;15.30;64.20;;;;;;5067181;28;43681;-71
2023/01/28 00:09:24;;;;;;;1.80;1.70;;;15.30;64.30;;;;;;5067478;28;43799;-72
2023/01/28 00:11:52;;;;;;;1.73;1.70;;;15.30;64.40;;;;;;5068321;28;43626;-71
2023/01/28 00:14:21;;;;;;;1.70;1.70;;;15.30;64.50;;;;;;5067038;28;43390;-71
2023/01/28 00:16:49;;;;;;;1.70;1.70;;;15.20;64.70;;;;;;5068840;28;43430;-71
2023/01/28 00:19:17;;;;;;;1.80;1.80;;;15.20;64.50;;;;;;5068045;28;43951;-70
2023/01/28 00:21:45;;;;;;;1.73;1.73;;;15.20;64.50;;;;;;5067791;28;43491;-71
2023/01/28 00:24:12;;;;;;;1.80;1.80;;;15.20;64.50;;;;;;5068150;28;43909;-72
2023/01/28 00:26:41;;;;;;;1.70;1.70;;;15.20;64.60;;;;;;5068648;28;43415;-72
2023/01/28 00:29:09;;;;;;;1.60;1.60;;;15.20;64.60;;;;;;5067847;28;43876;-72
2023/01/28 00:31:40;;;;;;;1.80;1.80;;;15.20;64.60;;;;;;5068034;28;43467;-71
2023/01/28 00:34:08;;;;;;;1.80;1.80;;;15.20;64.80;;;;;;5066870;28;43557;-71
2023/01/28 00:36:38;;;;;;;2.07;1.97;;;15.20;64.90;;;;;;5068021;28;43461;-71
2023/01/28 00:39:06;;;;;;;1.93;1.93;;;15.30;64.60;;;;;;5067256;28;44066;-72
2023/01/28 00:41:35;;;;;;;1.70;1.70;;;15.40;64.20;;;;;;5066209;28;44593;-72
2023/01/28 00:44:02;;;;;;;1.73;1.73;;;15.50;63.90;;;;;;5067869;28;43447;-72
2023/01/28 00:46:30;;;;;;;1.80;1.80;;;15.50;63.90;;;;;;5067999;28;43558;-71
2023/01/28 00:49:00;;;;;;;2.00;1.90;;;15.40;64.00;;;;;;5067656;28;43688;-72
2023/01/28 00:51:28;;;;;;;1.80;1.80;;;15.40;64.20;;;;;;5068167;28;43426;-71
2023/01/28 00:53:56;;;;;;;1.83;1.83;;;15.40;64.50;;;;;;5067717;28;43529;-71
2023/01/28 00:56:24;;;;;;;1.90;1.90;;;15.30;64.20;;;;;;5066231;28;43577;-70
2023/01/28 00:58:53;;;;;;;1.70;1.70;;;15.30;64.30;;;;;;5066012;28;45777;-70
2023/01/28 01:01:22;;;;;;;1.83;1.83;;;15.30;64.30;;;;;;5067859;28;43400;-72
2023/01/28 01:03:56;;;;;;;1.70;1.70;;;15.30;64.40;;;;;;5066322;28;43458;-71
2023/01/28 01:06:25;;;;;;;1.90;1.90;;;15.30;64.50;;;;;;5066095;28;43447;-72
2023/01/28 01:08:53;;;;;;;1.80;1.80;;;15.20;64.50;;;;;;5067325;28;43906;-73
2023/01/28 01:11:21;;;;;;;1.77;1.77;;;15.20;64.70;;;;;;5066089;28;44647;-71
2023/01/28 01:13:53;;;;;;;1.80;1.80;;;15.20;64.50;;;;;;5067561;28;43410;-72
2023/01/28 01:16:25;;;;;;;2.00;1.90;;;15.20;64.50;;;;;;5061709;28;43993;-71
2023/01/28 01:18:53;;;;;;;1.73;1.73;;;15.20;64.50;;;;;;5065991;28;46307;-71
2023/01/28 01:21:22;;;;;;;1.80;1.80;;;15.20;64.60;;;;;;5066998;28;43480;-70
2023/01/28 01:23:51;;;;;;;1.80;1.80;;;15.20;64.60;;;;;;5067083;28;43483;-70
2023/01/28 01:26:19;;;;;;;1.70;1.70;;;15.20;64.60;;;;;;5067905;28;43435;-71
2023/01/28 01:28:47;;;;;;;1.63;1.63;;;15.20;64.80;;;;;;5065166;28;45877;-70
2023/01/28 01:31:16;;;;;;;1.87;1.87;;;15.20;64.80;;;;;;5066717;28;43477;-72
2023/01/28 01:33:45;;;;;;;1.70;1.70;;;15.30;64.60;;;;;;5068993;28;43551;-72
2023/01/28 01:36:13;;;;;;;1.90;1.90;;;15.40;64.20;;;;;;5067038;28;43497;-71
2023/01/28 01:38:41;;;;;;;1.80;1.80;;;15.40;63.80;;;;;;5065430;28;46083;-70
2023/01/28 01:41:17;;;;;;;1.60;1.60;;;15.50;64.00;;;;;;5065351;28;44628;-71
2023/01/28 01:43:47;;;;;;;1.70;1.70;;;15.40;64.10;;;;;;5067395;28;43433;-71
2023/01/28 01:46:15;;;;;;;1.77;1.77;;;15.30;64.10;;;;;;5067095;28;43904;-72
2023/01/28 01:48:44;;;;;;;1.83;1.83;;;15.30;64.40;;;;;;5066292;28;43681;-70
2023/01/28 01:51:14;;;;;;;1.60;1.60;;;15.30;64.20;;;;;;5066912;28;43431;-70
2023/01/28 01:53:43;;;;;;;1.80;1.80;;;15.30;64.30;;;;;;5065203;28;44365;-70
2023/01/28 01:56:15;;;;;;;1.90;1.90;;;15.30;64.30;;;;;;5065597;28;43415;-72
2023/01/28 01:58:44;;;;;;;1.70;1.70;;;15.30;64.40;;;;;;5081973;28;45708;-70
2023/01/28 02:01:12;;;;;;;1.63;1.63;;;15.20;64.50;;;;;;5065368;28;43414;-71
2023/01/28 02:03:46;;;;;;;2.03;1.97;;;15.20;64.50;;;;;;5067086;28;43367;-71
2023/01/28 02:06:16;;;;;;;1.70;1.70;;;15.20;64.80;;;;;;5067024;28;43960;-71
2023/01/28 02:08:44;;;;;;;1.90;1.90;;;15.20;64.50;;;;;;5066352;28;43851;-70
2023/01/28 02:11:13;;;;;;;1.60;1.60;;;15.20;64.50;;;;;;5066419;28;43503;-72
2023/01/28 02:13:45;;;;;;;1.93;1.93;;;15.20;64.60;;;;;;5066805;28;43434;-71
2023/01/28 02:16:13;;;;;;;1.80;1.70;;;15.20;64.60;;;;;;5067048;28;43494;-70
2023/01/28 02:18:41;;;;;;;1.80;1.80;;;15.20;64.60;;;;;;5066677;28;43610;-70
2023/01/28 02:21:37;;;;;;;2.00;2.00;;;15.20;64.70;;;;;;5066030;28;43427;-71
2023/01/28 02:24:16;;;;;;;1.90;1.90;;;15.20;64.80;;;;;;5062410;28;44102;-70
2023/01/28 02:26:56;;;;;;;1.50;1.50;;;15.20;64.80;;;;;;5064978;28;43663;-70
2023/01/28 02:29:27;;;;;;;1.67;1.67;;;15.30;64.50;;;;;;5064785;28;45186;-71
2023/01/28 02:32:01;;;;;;;1.60;1.60;;;15.40;64.10;;;;;;5064582;28;43426;-71
2023/01/28 02:34:34;;;;;;;1.83;1.83;;;15.40;63.90;;;;;;5064406;28;43509;-71
2023/01/28 02:37:04;;;;;;;1.70;1.70;;;15.40;64.00;;;;;;5067009;28;43402;-70
2023/01/28 02:39:33;;;;;;;1.57;1.57;;;15.40;64.10;;;;;;5064275;28;44089;-71
2023/01/28 02:42:04;;;;;;;1.60;1.60;;;15.30;64.20;;;;;;5065739;28;43613;-70
2023/01/28 02:44:34;;;;;;;1.80;1.80;;;15.30;64.40;;;;;;5064820;28;43845;-71
2023/01/28 02:49:49;;;;;;;1.70;1.70;;;15.30;64.30;;;;;;5079453;28;45799;-71
2023/01/28 02:55:23;;;;;;;1.50;1.50;;;15.30;64.50;;;;;;5032311;28;43497;-71
2023/01/28 02:57:57;;;;;;;1.53;1.53;;;15.20;64.60;;;;;;5066681;28;43469;-72
2023/01/28 03:00:28;;;;;;;1.73;1.73;;;15.20;64.60;;;;;;5064109;28;43776;-71
2023/01/28 03:02:58;;;;;;;1.80;1.80;;;15.20;65.50;;;;;;5064086;28;43402;-71
2023/01/28 03:05:28;;;;;;;1.60;1.60;;;15.30;64.50;;;;;;5062970;28;44044;-70
2023/01/28 03:07:56;;;;;;;1.70;1.70;;;15.40;64.20;;;;;;5065922;28;43441;-72
2023/01/28 03:10:24;;;;;;;1.60;1.60;;;15.40;64.10;;;;;;5065567;28;43953;-69
2023/01/28 03:38:00;;;;;;;1.47;1.47;;;15.20;64.70;;;;;;5059445;28;43497;-72
2023/01/28 03:40:28;;;;;;;1.70;1.70;;;15.20;64.90;;;;;;5064475;28;43652;-70
2023/01/28 03:42:56;;;;;;;1.50;1.50;;;15.30;64.60;;;;;;5059602;28;45474;-71
2023/01/28 03:45:34;;;;;;;1.50;1.50;;;15.40;64.20;;;;;;5065914;28;44907;-70
2023/01/28 03:48:06;;;;;;;1.50;1.50;;;15.50;63.90;;;;;;5065116;28;43527;-70
2023/01/28 03:50:34;;;;;;;1.50;1.50;;;15.40;63.80;;;;;;5069385;28;43448;-72
2023/01/28 03:53:12;;;;;;;1.60;1.60;;;15.40;63.90;;;;;;5067048;28;45648;-70
2023/01/28 03:55:51;;;;;;;1.30;1.30;;;15.30;64.00;;;;;;5061818;28;43854;-70
2023/01/28 03:58:19;;;;;;;1.60;1.60;;;15.30;64.40;;;;;;5067951;28;43889;-70
2023/01/28 04:00:47;;;;;;;1.77;1.77;;;15.30;64.20;;;;;;5068643;28;44212;-70
2023/01/28 04:03:17;;;;;;;1.43;1.43;;;15.30;64.20;;;;;;5066762;28;46000;-72
2023/01/28 04:05:58;;;;;;;1.40;1.40;;;15.30;64.30;;;;;;5067219;28;43513;-71
2023/01/28 04:08:34;;;;;;;1.57;1.57;;;15.30;64.40;;;;;;5067259;28;43381;-71
2023/01/28 04:11:25;;;;;;;1.30;1.30;;;15.20;64.50;;;;;;5067407;28;43619;-71
2023/01/28 04:13:55;;;;;;;1.40;1.40;;;15.20;64.50;;;;;;5066818;28;44007;-70
2023/01/28 04:16:25;;;;;;;1.37;1.37;;;15.20;64.70;;;;;;5066743;28;43438;-69
2023/01/28 04:18:56;;;;;;;1.40;1.40;;;15.20;64.60;;;;;;5066460;28;43442;-70
2023/01/28 04:21:25;;;;;;;1.57;1.57;;;15.20;64.60;;;;;;5067276;28;43364;-71
2023/01/28 04:23:53;;;;;;;1.60;1.60;;;15.20;64.70;;;;;;5065732;28;45047;-69
2023/01/28 04:26:21;;;;;;;1.70;1.70;;;15.20;64.70;;;;;;5068240;28;43431;-71
2023/01/28 04:28:48;;;;;;;1.60;1.60;;;15.20;64.80;;;;;;5068029;28;43411;-71
2023/01/28 04:31:16;;;;;;;1.47;1.47;;;15.20;64.80;;;;;;5066944;28;43460;-71
2023/01/28 04:34:11;;;;;;;1.40;1.40;;;15.10;64.80;;;;;;5063380;28;43727;-70
2023/01/28 04:36:54;;;;;;;1.43;1.43;;;15.20;65.10;;;;;;5060254;28;44612;-70
2023/01/28 04:39:44;;;;;;;1.50;1.50;;;15.30;64.90;;;;;;5065130;28;43467;-70
2023/01/28 04:42:36;;;;;;;1.40;1.40;;;15.40;64.40;;;;;;5066776;28;43578;-71
2023/01/28 04:45:10;;;;;;;1.40;1.40;;;15.40;64.00;;;;;;5066625;28;43925;-69
2023/01/28 04:47:51;;;;;;;1.40;1.40;;;15.40;64.80;;;;;;5063823;28;44558;-71
2023/01/28 04:50:47;;;;;;;1.40;1.40;;;15.30;64.10;;;;;;5066350;28;43568;-71
2023/01/28 04:53:41;;;;;;;1.30;1.30;;;15.30;64.30;;;;;;5063383;28;43446;-69
2023/01/28 04:56:24;;;;;;;1.20;1.20;;;15.30;64.30;;;;;;5065741;28;44075;-71
2023/01/28 04:58:52;;;;;;;1.30;1.30;;;15.30;64.20;;;;;;5066370;28;44883;-70
2023/01/28 05:01:20;;;;;;;1.30;1.30;;;15.30;64.30;;;;;;5066180;28;43999;-69
2023/01/28 05:03:48;;;;;;;1.50;1.50;;;15.30;64.30;;;;;;5066750;28;43788;-70
2023/01/28 05:06:25;;;;;;;1.40;1.40;;;15.30;64.30;;;;;;5066048;28;44018;-71
2023/01/28 05:09:15;;;;;;;1.40;1.40;;;15.30;64.30;;;;;;5061672;28;43496;-69
2023/01/28 05:11:44;;;;;;;1.30;1.30;;;15.20;64.30;;;;;;5065355;28;43458;-70
2023/01/28 05:14:13;;;;;;;1.30;1.30;;;15.20;64.50;;;;;;5066741;28;43613;-71
2023/01/28 05:16:48;;;;;;;1.30;1.30;;;15.30;64.30;;;;;;5065393;28;44034;-71
2023/01/28 05:19:17;;;;;;;1.50;1.50;;;15.30;64.30;;;;;;5065948;28;44567;-71
2023/01/28 05:21:49;;;;;;;1.60;1.60;;;15.30;64.30;;;;;;5065875;28;43990;-71
2023/01/28 05:24:32;;;;;;;1.30;1.30;;;15.30;64.30;;;;;;5065605;28;43613;-70
2023/01/28 05:27:00;;;;;;;1.20;1.20;;;15.30;64.30;;;;;;5065880;28;45509;-71
2023/01/28 05:29:28;;;;;;;1.43;1.43;;;15.30;64.30;;;;;;5065715;28;43484;-70
2023/01/28 05:31:56;;;;;;;1.20;1.20;;;15.30;64.60;;;;;;5065415;28;43979;-69
2023/01/28 05:34:24;;;;;;;1.30;1.30;;;15.30;64.60;;;;;;5061315;28;44458;-70
2023/01/28 05:36:54;;;;;;;1.30;1.30;;;15.40;64.40;;;;;;5065765;28;44035;-72
2023/01/28 05:39:30;;;;;;;1.20;1.20;;;15.50;63.90;;;;;;5065371;28;45485;-70
2023/01/28 05:41:58;;;;;;;1.10;1.10;;;15.50;63.60;;;;;;5065553;28;43421;-71
2023/01/28 05:44:26;;;;;;;1.10;1.10;;;15.50;63.50;;;;;;5065951;28;43554;-71
2023/01/28 05:47:03;;;;;;;1.20;1.20;;;15.50;63.70;;;;;;5065177;28;46196;-70
2023/01/28 05:49:50;;;;;;;1.27;1.27;;;15.50;63.80;;;;;;5063945;28;43390;-69
2023/01/28 05:52:37;;;;;;;1.30;1.30;;;15.40;64.00;;;;;;5063671;28;44094;-72
2023/01/28 05:55:10;;;;;;;1.37;1.37;;;15.40;63.90;;;;;;5066122;28;43400;-72
2023/01/28 05:57:38;;;;;;;1.40;1.40;;;15.40;64.10;;;;;;5082277;28;46245;-71
2023/01/28 06:00:09;;;;;;;1.30;1.30;;;15.30;64.10;;;;;;5065303;28;43400;-70
2023/01/28 06:02:44;;;;;;;1.20;1.20;;;15.30;64.20;;;;;;5065526;28;43416;-69
2023/01/28 06:05:14;;;;;;;1.13;1.13;;;15.30;64.30;;;;;;5065471;28;44017;-70
2023/01/28 06:07:46;;;;;;;1.07;1.07;;;15.20;64.30;;;;;;5064125;28;43924;-69
2023/01/28 06:10:16;;;;;;;1.23;1.23;;;15.20;64.70;;;;;;5065095;28;43423;-71
2023/01/28 06:12:45;;;;;;;0.97;0.97;;;15.20;64.40;;;;;;5064666;28;43787;-72
2023/01/28 06:15:39;;;;;;;1.20;1.20;;;15.20;64.50;;;;;;5062078;28;43447;-71
2023/01/28 06:18:42;;;;;;;1.30;1.30;;;15.20;64.50;;;;;;5058939;28;43568;-70
2023/01/28 06:21:09;;;;;;;1.00;1.00;;;15.20;64.50;;;;;;5066212;28;43420;-69
2023/01/28 06:23:39;;;;;;;0.97;0.97;;;15.20;64.50;;;;;;5066210;28;43428;-70
2023/01/28 06:26:10;;;;;;;1.07;1.07;;;15.20;64.50;;;;;;5065821;28;43617;-71
2023/01/28 06:28:41;;;;;;;1.40;1.40;;;15.20;64.80;;;;;;5065147;28;43824;-69
2023/01/28 06:31:09;;;;;;;1.00;1.00;;;15.30;64.60;;;;;;5066141;28;43725;-71
2023/01/28 06:33:37;;;;;;;1.10;1.10;;;15.40;64.20;;;;;;5060305;28;43415;-70
2023/01/28 06:36:05;;;;;;;1.37;1.37;;;15.50;63.80;;;;;;5066311;28;43519;-70
2023/01/28 06:38:33;;;;;;;1.00;1.00;;;15.50;63.60;;;;;;5066270;28;43566;-71
2023/01/28 06:41:03;;;;;;;1.20;1.20;;;15.50;63.70;;;;;;5066034;28;43438;-72
2023/01/28 06:43:31;;;;;;;1.13;1.13;;;15.50;63.70;;;;;;5064762;28;43715;-69
2023/01/28 06:45:59;;;;;;;1.23;1.23;;;15.40;63.90;;;;;;5060183;28;43425;-70
2023/01/28 06:48:27;;;;;;;1.00;1.00;;;15.40;64.00;;;;;;5059589;28;43853;-71
2023/01/28 06:50:55;;;;;;;1.10;1.10;;;15.40;63.80;;;;;;5066131;28;43365;-72
2023/01/28 06:53:23;;;;;;;1.07;1.07;;;15.40;63.90;;;;;;5058250;28;43947;-70
2023/01/28 06:55:51;;;;;;;1.13;1.13;;;15.40;64.30;;;;;;5078043;28;43783;-71
2023/01/28 06:58:20;;;;;;;1.00;1.00;;;15.30;63.90;;;;;;5059459;28;43924;-70
2023/01/28 07:00:48;;;;;;;1.20;1.20;;;15.30;64.00;;;;;;5060526;28;43390;-70
2023/01/28 07:03:16;;;;;;;1.00;1.00;;;15.30;64.10;;;;;;5059820;28;43399;-70
2023/01/28 07:05:44;;;;;;;1.20;1.20;;;15.30;64.30;;;;;;5060802;28;43976;-70
2023/01/28 07:08:12;;;;;;;0.90;0.90;;;15.30;64.10;;;;;;5063700;28;44073;-72
2023/01/28 07:10:40;;;;;;;1.30;1.30;;;15.30;64.20;;;;;;5066071;28;43414;-69
2023/01/28 07:13:08;;;;;;;1.00;1.00;;;15.30;64.20;;;;;;5086819;27;43472;-71
2023/01/28 07:15:37;;;;;;;1.00;1.00;;;15.30;64.30;;;;;;5066154;28;43896;-72
2023/01/28 07:18:05;;;;;;;1.00;1.00;;;15.30;64.30;;;;;;5064917;28;44067;-72
2023/01/28 07:20:34;;;;;;;1.30;1.30;;;15.20;64.30;;;;;;5067900;28;44455;-71
2023/01/28 07:23:01;;;;;;;0.90;0.90;;;15.20;64.50;;;;;;5068095;28;43396;-71
2023/01/28 07:25:30;;;;;;;1.00;1.00;;;15.30;64.60;;;;;;5069560;28;43932;-70
2023/01/28 07:27:58;;;;;;;1.10;1.10;;;15.40;64.40;;;;;;5069143;28;43866;-70
2023/01/28 07:30:26;;;;;;;1.10;1.10;;;15.50;63.80;;;;;;5069150;28;43469;-71
2023/01/28 07:32:55;;;;;;;1.13;1.13;;;15.50;64.20;;;;;;5069453;28;43900;-70
2023/01/28 07:35:23;;;;;;;1.20;1.20;;;15.50;63.40;;;;;;5064565;28;43577;-70
2023/01/28 07:37:53;;;;;;;1.17;1.17;;;15.50;63.50;;;;;;5068803;28;43946;-70
2023/01/28 07:40:21;;;;;;;0.90;0.90;;;15.50;63.70;;;;;;5069187;28;44022;-69
2023/01/28 07:42:49;;;;;;;1.10;1.10;;;15.50;64.00;;;;;;5068965;28;43507;-70
2023/01/28 07:45:22;;;;;;;1.60;1.60;;;15.40;63.60;;;;;;5068165;28;43541;-71
2023/01/28 07:47:58;;;;;;;1.27;1.27;;;15.40;63.70;;;;;;5069018;28;43735;-70
2023/01/28 07:50:27;;;;;;;0.80;0.80;;;15.40;63.80;;;;;;5068878;28;43482;-71
2023/01/28 07:52:55;;;;;;;1.10;1.10;;;15.30;63.80;;;;;;5068777;28;43428;-70
2023/01/28 07:55:24;;;;;;;0.97;0.97;;;15.40;64.10;;;;;;5069643;28;43351;-71
2023/01/28 07:57:52;;;;;;;1.00;1.00;;;15.30;64.00;;;;;;5068976;28;44100;-71
2023/01/28 08:00:20;;;;;;;0.90;0.90;;;15.30;64.30;;;;;;5068883;28;43377;-71
2023/01/28 08:02:48;;;;;;;1.00;1.00;;;15.30;64.10;;;;;;5068664;28;43850;-71
2023/01/28 08:05:18;;;;;;;1.03;1.03;;;15.30;64.10;;;;;;5068661;28;43449;-70
2023/01/28 08:07:48;;;;;;;1.10;1.10;;;15.30;64.20;;;;;;5068456;28;43611;-71
2023/01/28 08:10:16;;;;;;;1.00;1.00;;;15.30;64.20;;;;;;5068736;28;43374;-70
2023/01/28 08:12:51;;;;;;;1.23;1.23;;;15.30;64.20;;;;;;5068424;28;43433;-69
2023/01/28 08:15:19;;;;;;;1.00;1.00;;;15.30;64.30;;;;;;5069327;28;43406;-70
2023/01/28 08:17:47;;;;;;;1.00;1.00;;;15.30;64.50;;;;;;5068405;28;43954;-69
2023/01/28 08:20:15;;;;;;;0.83;0.83;;;15.30;64.60;;;;;;5068617;28;43444;-69
2023/01/28 08:22:45;;;;;;;0.90;0.90;;;15.40;64.30;;;;;;5065283;28;43403;-71
2023/01/28 08:25:13;;;;;;;1.07;1.07;;;15.50;63.80;;;;;;5068778;28;43347;-71
2023/01/28 08:27:41;;;;;;;0.90;0.90;;;15.50;63.60;;;;;;5063939;28;44074;-70
2023/01/28 08:30:10;;;;;;;0.93;0.93;;;15.50;63.60;;;;;;5066814;28;43445;-70
2023/01/28 08:32:38;;;;;;;1.10;1.10;;;15.50;64.10;;;;;;5067124;28;43433;-70
2023/01/28 08:35:07;;;;;;;1.03;1.03;;;15.40;63.60;;;;;;5066651;28;43624;-70
2023/01/28 08:37:35;;;;;;;1.07;1.07;;;15.40;64.00;;;;;;5067748;28;43899;-70
2023/01/28 08:40:06;;;;;;;0.90;0.90;;;15.40;63.80;;;;;;5065707;28;44472;-70
2023/01/28 08:42:34;;;;;;;1.00;1.00;;;15.40;63.70;;;;;;5067248;28;43428;-70
2023/01/28 08:45:02;;;;;;;0.90;0.90;;;15.40;63.80;;;;;;5068556;28;43498;-70
2023/01/28 08:47:30;;;;;;;1.00;1.00;;;15.40;63.90;;;;;;5067990;28;43794;-70
2023/01/28 08:49:58;;;;;;;0.87;0.87;;;15.40;64.00;;;;;;5067837;28;43449;-69
2023/01/28 08:52:25;;;;;;;1.00;1.00;;;15.30;64.00;;;;;;5067859;28;43374;-70
2023/01/28 08:54:53;;;;;;;1.10;1.10;;;15.30;64.30;;;;;;5068468;28;43414;-71
2023/01/28 08:57:23;;;;;;;0.93;0.93;;;15.30;64.10;;;;;;5066412;28;45983;-70
2023/01/28 08:59:51;;;;;;;0.93;0.93;;;15.30;64.10;;;;;;5065370;28;43521;-71
2023/01/28 09:02:19;;;;;;;0.90;0.90;;;15.30;64.00;;;;;;5064696;28;43948;-72
2023/01/28 09:04:58;;;;;;;1.10;1.10;;;15.30;64.10;;;;;;5065396;28;43374;-71
2023/01/28 09:07:26;;;;;;;1.00;1.00;;;15.30;64.20;;;;;;5065350;28;44041;-70
2023/01/28 09:09:54;;;;;;;1.23;0.83;;;15.30;64.20;;;;;;5064715;28;44074;-71
2023/01/28 09:12:24;;;;;;;1.03;1.03;;;15.30;64.30;;;;;;5064669;28;43429;-71
2023/01/28 09:14:52;;;;;;;1.00;1.00;;;15.30;64.50;;;;;;5062042;28;43510;-70
2023/01/28 09:17:20;;;;;;;1.00;1.00;;;15.30;64.40;;;;;;5064218;28;43906;-71
2023/01/28 09:19:47;;;;;;;1.10;1.10;;;15.40;64.00;;;;;;5062837;28;43506;-71
2023/01/28 09:22:15;;;;;;;0.90;0.90;;;15.50;63.70;;;;;;5064296;28;43443;-70
2023/01/28 09:24:43;;;;;;;0.80;0.80;;;15.50;63.60;;;;;;5064802;28;43500;-72
2023/01/28 09:27:11;;;;;;;0.97;0.97;;;15.50;63.80;;;;;;5062168;28;43614;-68
2023/01/28 09:29:41;;;;;;;1.03;1.03;;;15.50;63.80;;;;;;5064221;28;43492;-70
2023/01/28 09:32:09;;;;;;;1.10;1.10;;;15.40;63.70;;;;;;5063082;28;43367;-70
2023/01/28 09:34:37;;;;;;;0.97;0.97;;;15.40;64.10;;;;;;5062092;28;43450;-70
2023/01/28 09:37:05;;;;;;;0.90;0.90;;;15.40;63.80;;;;;;5062253;28;46084;-72
2023/01/28 09:39:33;;;;;;;0.97;0.97;;;15.40;64.00;;;;;;5063194;28;44047;-70
2023/01/28 09:42:11;;;;;;;0.80;0.80;;;15.30;63.90;;;;;;5059489;28;43492;-70
2023/01/28 09:44:53;;;;;;;0.90;0.90;;;15.40;64.10;;;;;;5064657;28;43526;-70
2023/01/28 09:47:24;;;;;;;0.80;0.80;;;15.30;64.00;;;;;;5062971;28;44470;-71
2023/01/28 09:49:52;;;;;;;0.80;0.80;;;15.30;64.20;;;;;;5062597;28;43378;-70
2023/01/28 09:52:21;;;;;;;0.87;0.87;;;15.30;64.50;;;;;;5064517;28;43492;-70
2023/01/28 09:54:51;;;;;;;0.90;0.90;;;15.30;64.20;;;;;;5060996;28;43431;-71
2023/01/28 09:57:21;;;;;;;0.80;0.80;;;15.30;64.20;;;;;;5062407;28;43961;-71
2023/01/28 09:59:50;;;;;;;0.90;0.90;;;15.30;64.30;;;;;;5064680;28;43415;-69
2023/01/28 10:02:35;;;;;;;0.93;0.93;;;15.30;64.40;;;;;;5061116;28;43406;-71
2023/01/28 10:05:07;;;;;;;1.00;1.00;;;15.20;64.30;;;;;;5064483;28;43538;-71
2023/01/28 10:07:39;;;;;;;0.90;0.90;;;15.20;64.30;;;;;;5064268;28;45368;-71
2023/01/28 10:10:10;;;;;;;0.90;0.90;;;15.20;64.60;;;;;;5061043;28;43434;-70
2023/01/28 10:12:58;;;;;;;1.00;1.00;;;15.30;64.50;;;;;;5072160;28;43525;-70
2023/01/28 10:15:38;;;;;;;0.97;0.97;;;15.40;64.10;;;;;;5056161;28;43619;-70
2023/01/28 10:18:09;;;;;;;1.07;1.07;;;15.50;63.70;;;;;;5064168;28;43704;-70
2023/01/28 10:20:46;;;;;;;1.07;1.07;;;15.50;63.50;;;;;;5064078;28;43891;-69
2023/01/28 10:23:16;;;;;;;1.53;1.43;;;15.50;63.50;;;;;;5063628;28;43482;-71
2023/01/28 10:25:46;;;;;;;0.90;0.90;;;15.50;63.70;;;;;;5059187;28;43483;-71
2023/01/28 10:28:18;;;;;;;2.43;1.17;;;15.40;64.00;;;;;;5060533;28;46269;-69
2023/01/28 10:30:48;;;;;;;1.13;0.97;;;15.40;63.60;;;;;;5064403;28;44430;-70
2023/01/28 10:33:19;;;;;;;1.00;1.00;;;15.40;63.60;;;;;;5061957;28;43484;-70
2023/01/28 10:35:47;;;;;;;1.17;1.17;;;15.40;63.60;;;;;;5062323;28;43497;-71
2023/01/28 10:38:17;;;;;;;0.90;0.90;;;15.30;63.50;;;;;;5065026;28;43898;-69
2023/01/28 10:40:46;;;;;;;0.97;0.97;;;15.30;63.60;;;;;;5059420;28;43454;-70
2023/01/28 10:43:16;;;;;;;1.20;1.10;;;15.30;63.70;;;;;;5065048;28;43977;-71
2023/01/28 10:45:49;;;;;;;1.10;1.00;;;15.30;64.10;;;;;;5060731;28;43450;-70
2023/01/28 10:48:19;;;;;;;1.00;1.00;;;15.30;63.70;;;;;;5059321;28;45652;-70
2023/01/28 10:50:51;;;;;;;1.20;1.10;;;15.30;63.50;;;;;;5077280;28;45015;-69
2023/01/28 10:53:19;;;;;;;1.50;1.10;;;15.30;63.60;;;;;;5066911;28;43429;-70
2023/01/28 10:55:50;;;;;;;1.20;1.20;;;15.30;63.70;;;;;;5068346;28;43458;-69
2023/01/28 10:58:19;;;;;;;1.00;1.00;;;15.30;64.00;;;;;;5080347;28;45825;-72
2023/01/28 11:00:52;;;;;;;2.10;1.00;;;15.30;64.20;;;;;;5065968;28;44006;-70
2023/01/28 11:03:20;;;;;;;1.27;1.17;;;15.30;64.20;;;;;;5068512;28;43446;-70
2023/01/28 11:05:51;;;;;;;1.10;1.10;;;15.30;64.40;;;;;;5064597;28;43438;-70
2023/01/28 11:08:19;;;;;;;1.33;1.00;;;15.40;64.20;;;;;;5067921;28;43760;-70
2023/01/28 11:10:47;;;;;;;1.23;1.00;;;15.50;63.70;;;;;;5065051;28;43473;-71
2023/01/28 11:13:20;;;;;;;1.03;0.93;;;15.50;63.20;;;;;;5065648;28;43425;-72
2023/01/28 11:15:50;;;;;;;3.70;1.10;;;15.50;63.40;;;;;;5064260;28;43433;-69
2023/01/28 11:18:21;;;;;;;1.03;0.97;;;15.40;63.50;;;;;;5068446;28;43873;-71
2023/01/28 11:20:51;;;;;;;3.77;1.20;;;15.40;63.60;;;;;;5063983;28;43425;-69
2023/01/28 11:23:21;;;;;;;1.27;1.17;;;15.40;63.80;;;;;;5065003;28;43474;-70
2023/01/28 11:25:49;;;;;;;3.10;0.90;;;15.40;63.70;;;;;;5062447;28;43449;-70
2023/01/28 11:28:18;;;;;;;1.00;1.00;;;15.40;63.60;;;;;;5064131;28;44063;-70
2023/01/28 11:30:51;;;;;;;0.90;0.90;;;15.40;63.80;;;;;;5078795;28;45066;-70
2023/01/28 11:33:20;;;;;;;0.97;0.97;;;15.30;63.60;;;;;;5064291;28;43453;-71
2023/01/28 11:35:54;;;;;;;0.77;0.77;;;15.40;63.80;;;;;;5064007;28;43448;-71
2023/01/28 11:38:23;;;;;;;0.90;0.90;;;15.30;63.80;;;;;;5065798;28;43605;-71
2023/01/28 11:40:52;;;;;;;1.20;1.20;;;15.30;63.80;;;;;;5062472;28;43446;-69
2023/01/28 11:43:20;;;;;;;1.00;1.00;;;15.30;64.20;;;;;;5065254;28;44098;-70
2023/01/28 11:45:52;;;;;;;1.00;1.00;;;15.40;64.20;;;;;;5067977;28;44155;-70
2023/01/28 11:48:26;;;;;;;1.07;1.07;;;15.50;63.80;;;;;;5065015;28;43608;-71
2023/01/28 11:50:57;;;;;;;0.97;0.97;;;15.60;63.40;;;;;;5065802;28;44041;-71
2023/01/28 11:53:39;;;;;;;1.00;1.00;;;15.50;63.00;;;;;;5067423;28;43449;-71
2023/01/28 11:56:18;;;;;;;1.00;1.00;;;15.50;63.20;;;;;;5062757;28;43523;-71
2023/01/28 11:58:49;;;;;;;1.00;1.00;;;15.50;63.30;;;;;;5086686;27;45733;-71
2023/01/28 12:01:22;;;;;;;1.03;1.00;;;15.50;63.70;;;;;;5065616;28;43415;-71
2023/01/28 12:04:11;;;;;;;0.80;0.80;;;15.40;63.40;;;;;;5064741;28;43409;-70
2023/01/28 12:06:47;;;;;;;0.90;0.90;;;15.40;63.40;;;;;;5065086;28;44052;-70
2023/01/28 12:09:19;;;;;;;0.87;0.87;;;15.40;63.60;;;;;;5066431;28;45793;-70
2023/01/28 12:12:13;;;;;;;0.80;0.80;;;15.40;63.60;;;;;;5065443;28;44402;-70
2023/01/28 12:15:03;;;;;;;0.80;0.80;;;15.40;63.60;;;;;;5068283;28;43316;-69
2023/01/28 12:17:47;;;;;;;0.73;0.73;;;15.30;63.70;;;;;;5062052;28;43962;-71
2023/01/28 12:20:18;;;;;;;0.90;0.90;;;15.30;64.10;;;;;;5068524;28;43963;-70
2023/01/28 12:23:00;;;;;;;1.17;1.17;;;15.40;63.90;;;;;;5068224;28;43450;-70
2023/01/28 12:25:37;;;;;;;1.07;1.00;;;15.30;63.80;;;;;;5066572;28;43485;-72
2023/01/28 12:28:08;;;;;;;0.90;0.90;;;15.40;63.90;;;;;;5066585;28;43490;-70
2023/01/28 12:30:54;;;;;;;1.07;1.07;;;15.30;63.90;;;;;;5066269;28;45956;-71
2023/01/28 12:33:47;;;;;;;0.90;0.90;;;15.30;64.00;;;;;;5064283;28;44932;-71
2023/01/28 12:36:22;;;;;;;0.83;0.83;;;15.30;64.00;;;;;;5066002;28;43467;-71
2023/01/28 12:38:56;;;;;;;0.90;0.90;;;15.30;64.30;;;;;;5063930;28;43419;-73
2023/01/28 12:41:25;;;;;;;0.70;0.70;;;15.30;64.10;;;;;;5062804;28;43723;-71
2023/01/28 12:43:56;;;;;;;0.80;0.80;;;15.50;63.80;;;;;;5083271;28;44830;-70
2023/01/28 12:46:33;;;;;;;0.90;0.90;;;15.60;63.50;;;;;;5067669;28;43418;-71
2023/01/28 12:49:04;;;;;;;0.90;0.90;;;15.60;63.30;;;;;;5066397;28;43482;-70
2023/01/28 12:51:34;;;;;;;0.93;0.93;;;15.50;63.20;;;;;;5067695;28;43894;-71
2023/01/28 12:54:04;;;;;;;0.90;0.90;;;15.50;63.50;;;;;;5067539;28;43411;-70
2023/01/28 12:56:33;;;;;;;0.90;0.90;;;15.50;64.50;;;;;;5060904;28;43421;-72
2023/01/28 12:59:04;;;;;;;1.10;1.10;;;15.40;63.60;;;;;;5067359;28;43508;-70
2023/01/28 13:01:37;;;;;;;0.90;0.90;;;15.40;63.50;;;;;;5067832;28;43908;-70
2023/01/28 13:04:09;;;;;;;0.80;0.80;;;15.40;63.60;;;;;;5067398;28;43944;-71
2023/01/28 13:06:39;;;;;;;0.90;0.90;;;15.40;63.60;;;;;;5065017;28;43969;-71
2023/01/28 13:09:13;;;;;;;0.80;0.80;;;15.40;63.60;;;;;;5066614;28;43587;-70
2023/01/28 13:11:41;;;;;;;0.90;0.90;;;15.30;63.70;;;;;;5067313;28;43919;-71
2023/01/28 13:14:09;;;;;;;1.07;1.07;;;15.30;63.80;;;;;;5065823;28;44698;-70
2023/01/28 13:16:37;;;;;;;0.80;0.80;;;15.30;64.00;;;;;;5067174;28;43526;-72
2023/01/28 13:19:22;;;;;;;0.90;0.90;;;15.30;63.70;;;;;;5068123;28;43371;-70
2023/01/28 13:21:50;;;;;;;1.07;1.07;;;15.30;63.80;;;;;;5063677;28;46071;-70
2023/01/28 13:24:23;;;;;;;0.83;0.83;;;15.30;63.90;;;;;;5066778;28;43456;-70
2023/01/28 13:26:52;;;;;;;0.90;0.90;;;15.30;63.90;;;;;;5067720;28;43515;-71
2023/01/28 13:29:29;;;;;;;1.10;1.10;;;15.30;64.00;;;;;;5068043;28;43384;-70
2023/01/28 13:31:58;;;;;;;0.90;0.90;;;15.30;64.10;;;;;;5067215;28;43893;-71
2023/01/28 13:34:35;;;;;;;0.90;0.90;;;15.30;64.30;;;;;;5061544;28;43459;-71
2023/01/28 13:37:05;;;;;;;1.00;1.00;;;15.40;64.20;;;;;;5061518;28;43712;-70
2023/01/28 13:39:34;;;;;;;0.90;0.90;;;15.50;63.70;;;;;;5067435;28;43457;-71
2023/01/28 13:42:21;;;;;;;0.90;0.90;;;15.60;63.40;;;;;;5059714;28;45742;-70